Terminal Aerodrome Forecast
Issued by NWS

Home | Current Version | Previous Version | Text Only | Print | Product List | Glossary On
Versions: 1 2 3 4 5 6 7 8 9 10 11 12 13 14 15 16 17 18 19 20 21 22 23 24 25 26
000
FTUS45 KRIW 211700
TAFPNA
TAF
KPNA 211720Z 2118/2218 VRB04KT P6SM BKN050
     FM211900 22012KT P6SM VCSH SCT050 BKN070
     FM212000 24015G25KT P6SM -SHRA BKN035
     FM212300 29015KT P6SM VCSH SCT040 BKN070
     FM220300 32008KT P6SM SCT080
     FM221400 VRB04KT P6SM SCT250
      AMD LTD TO CLD VIS AND WIND=

USA.gov is the U.S. government's official web portal to all federal, state and local government web resources and services.